KCRX/CRX METAR and TAF weather

Enter ICAO airport designator
Station Type Date Time Source
KCRX METAR 2018/07/21 22:35 UTC NOAA

KCRX 212235Z AUTO 34005KT 10SM 31/21 A2984 RMK AO2


Station Type Date Time Source
KCRX Decoded METAR 2018/07/21 22:35 UTC NOAA

Station name not available
Jul 21, 2018 - 06:35 PM EDT / 2018.07.21 2235 UTC
Wind: from the NNW (340 degrees) at 6 MPH (5 KT):0
Visibility: 10 mile(s):0
Temperature: 87 F (31 C)
Dew Point: 69 F (21 C)
Relative Humidity: 55%
Pressure (altimeter): 29.84 in. Hg (1010 hPa)
ob: KCRX 212235Z AUTO 34005KT 10SM 31/21 A2984 RMK AO2
cycle: 22

Station Type Date Time Source
KCRX TAF UTC NOAA

Error!


Example: see airport list